Terminal Aerodrome Forecast
Issued by NWS Louisville, KY

Home | Current Version | Previous Version | Graphics & Text | Print | Product List | Glossary On
Versions: 1 2 3 4 5 6 7 8 9 10 11 12 13
084
FTUS43 KLMK 270533
TAFLEX
TAF
KLEX 270533Z 2706/2806 10003KT P6SM BKN250
     FM271500 15006KT P6SM SCT050
     FM271900 19003KT P6SM SCT250=

USA.gov is the U.S. government's official web portal to all federal, state and local government web resources and services.